createdAt,value
2023-01-17T00:12:59.573Z,94501.25
2023-01-17T00:17:55.258Z,94492.16
2023-01-17T00:23:06.396Z,94496.69
2023-01-17T00:27:58.746Z,94490.41
2023-01-17T00:32:52.533Z,94496.16
2023-01-17T00:37:45.131Z,94494.91
2023-01-17T00:42:37.452Z,94496.53
2023-01-17T00:47:48.367Z,94499.78
2023-01-17T00:53:00.611Z,94498.16
2023-01-17T00:58:11.229Z,94481.44
2023-01-17T01:03:27.837Z,94478.41
2023-01-17T01:08:42.907Z,94477.06
2023-01-17T01:13:53.827Z,94484.13
2023-01-17T01:39:15.891Z,94489.44
2023-01-17T01:44:45.162Z,94498.81
2023-01-17T01:49:39.644Z,94494.56
2023-01-17T01:54:41.907Z,94494.31
2023-01-17T01:59:42.219Z,94493.22
2023-01-17T02:04:36.441Z,94493.53
2023-01-17T02:09:29.782Z,94470.06
2023-01-17T02:14:24.773Z,94465.53
2023-01-17T02:19:50.474Z,94467.75
2023-01-17T02:25:16.851Z,94458.34
2023-01-17T02:30:34.312Z,94448.50
2023-01-17T02:35:39.406Z,94437.94
2023-01-17T02:40:43.305Z,94443.19
2023-01-17T02:45:38.612Z,94431.41
2023-01-17T02:50:49.839Z,94441.66
2023-01-17T02:55:58.870Z,94445.59
2023-01-17T03:01:08.074Z,94432.91
2023-01-17T03:06:11.800Z,94422.50
2023-01-17T03:11:05.265Z,94435.44
2023-01-17T03:16:00.206Z,94444.16
2023-01-17T03:20:53.568Z,94441.13
2023-01-17T03:25:47.085Z,94430.63
2023-01-17T03:30:40.527Z,94417.84
2023-01-17T03:48:42.586Z,94403.19
2023-01-17T03:53:36.233Z,94397.91
2023-01-17T03:58:29.672Z,94401.25
2023-01-17T04:03:23.130Z,94403.91
2023-01-17T04:47:29.799Z,94374.38
2023-01-17T05:19:36.203Z,94347.63
2023-01-17T05:31:02.568Z,94361.13
2023-01-17T05:35:56.047Z,94353.13
2023-01-17T05:40:49.489Z,94342.22
2023-01-17T05:45:43.104Z,94341.03
2023-01-17T05:50:39.423Z,94337.75
2023-01-17T05:55:33.601Z,94331.44
2023-01-17T06:00:27.548Z,94323.91
2023-01-17T06:05:21.411Z,94319.44
2023-01-17T06:10:18.104Z,94314.94
2023-01-17T06:15:13.498Z,94313.25
2023-01-17T06:39:59.090Z,94318.53
2023-01-17T06:44:52.398Z,94309.09
2023-01-17T06:49:45.873Z,94292.28
2023-01-17T06:54:39.191Z,94299.44
2023-01-17T06:59:34.312Z,94287.22
2023-01-17T07:04:27.642Z,94267.00
2023-01-17T07:09:21.061Z,94267.38
2023-01-17T07:14:15.480Z,94254.94
2023-01-17T07:52:48.087Z,94245.94
2023-01-17T07:57:43.849Z,94251.97
2023-01-17T08:02:37.195Z,94244.25
2023-01-17T08:07:30.584Z,94229.16
2023-01-17T08:12:25.994Z,94232.53
2023-01-17T08:22:27.463Z,94209.41
2023-01-17T08:27:20.857Z,94217.34
2023-01-17T08:32:14.233Z,94198.25
2023-01-17T08:37:08.003Z,94182.50
2023-01-17T08:42:02.926Z,94158.97
2023-01-17T08:46:56.354Z,94138.47
2023-01-17T08:51:49.805Z,94150.69
2023-01-17T08:56:43.865Z,94153.69
2023-01-17T09:01:41.996Z,94170.19
2023-01-17T09:06:39.378Z,94176.31
2023-01-17T09:11:33.089Z,94156.97
2023-01-17T09:16:27.084Z,94137.78
2023-01-17T09:21:21.900Z,94138.19
2023-01-17T09:26:21.118Z,94146.47
2023-01-17T09:31:15.968Z,94146.63
2023-01-17T09:36:13.959Z,94150.97
2023-01-17T09:41:27.707Z,94157.25
2023-01-17T09:46:26.745Z,94162.13
2023-01-17T09:51:25.253Z,94146.72
2023-01-17T09:56:29.588Z,94150.69
2023-01-17T10:01:37.403Z,94137.75
2023-01-17T10:07:01.577Z,94135.84
2023-01-17T10:12:20.047Z,94137.16
2023-01-17T10:17:30.733Z,94129.41
2023-01-17T10:22:51.248Z,94129.81
2023-01-17T10:27:57.766Z,94120.56
2023-01-17T10:32:51.453Z,94114.69
2023-01-17T10:37:46.688Z,94112.63
2023-01-17T10:42:53.785Z,94110.19
2023-01-17T10:48:01.193Z,94107.69
2023-01-17T10:53:07.921Z,94110.81
2023-01-17T10:58:04.104Z,94112.44
2023-01-17T11:02:57.925Z,94102.78
2023-01-17T11:08:03.299Z,94081.91
2023-01-17T11:45:36.530Z,94012.16
2023-01-17T11:50:30.619Z,93992.63
2023-01-17T11:55:24.050Z,93977.91
2023-01-17T12:00:26.865Z,93979.59
2023-01-17T12:05:41.072Z,93961.44
2023-01-17T12:10:46.232Z,93952.81
2023-01-17T12:16:21.705Z,93953.47
2023-01-17T12:21:26.629Z,93945.69
2023-01-17T12:26:36.020Z,93938.88
2023-01-17T12:31:36.652Z,93929.78
2023-01-17T12:36:46.890Z,93913.06
2023-01-17T12:41:59.042Z,93897.66
2023-01-17T12:47:03.960Z,93878.88
2023-01-17T12:52:12.494Z,93886.34
2023-01-17T12:57:15.705Z,93891.06
2023-01-17T13:02:23.738Z,93884.81
2023-01-17T13:07:33.283Z,93883.59
2023-01-17T13:12:33.888Z,93870.94
2023-01-17T13:17:39.141Z,93865.06
2023-01-17T13:22:37.162Z,93876.22
2023-01-17T13:28:06.286Z,93881.13
2023-01-17T13:33:29.700Z,93880.31
2023-01-17T13:39:03.019Z,93862.72
2023-01-17T13:44:14.199Z,93851.97
2023-01-17T13:49:34.106Z,93854.94
2023-01-17T13:54:34.723Z,93855.59
2023-01-17T13:59:30.751Z,93840.47
2023-01-17T14:04:46.106Z,93849.44
2023-01-17T14:09:43.583Z,93846.75
2023-01-17T14:14:48.133Z,93850.41
2023-01-17T14:19:42.602Z,93846.59
2023-01-17T14:25:02.920Z,93846.84
2023-01-17T14:29:59.533Z,93852.38
2023-01-17T14:48:00.736Z,93855.84
2023-01-17T15:06:12.692Z,93889.53
2023-01-17T15:11:10.592Z,93895.34
2023-01-17T15:22:37.256Z,93905.75
2023-01-17T15:41:09.223Z,93903.88
2023-01-17T15:46:04.963Z,93893.94
2023-01-17T15:51:00.299Z,93899.53
2023-01-17T15:55:54.018Z,93903.13
2023-01-17T16:00:49.202Z,93892.75
2023-01-17T16:05:43.901Z,93890.06
2023-01-17T16:10:39.612Z,93882.56
2023-01-17T16:35:30.048Z,93892.88
2023-01-17T16:59:58.970Z,93944.44
2023-01-17T17:04:52.461Z,93928.09
2023-01-17T17:09:45.732Z,93950.47
2023-01-17T17:14:39.560Z,93931.00
2023-01-17T17:19:34.828Z,93938.53
2023-01-17T17:24:28.790Z,93938.91
2023-01-17T17:29:22.552Z,93942.63
2023-01-17T17:34:16.501Z,93936.88
2023-01-17T17:39:15.898Z,93940.44
2023-01-17T17:44:09.884Z,93954.88
2023-01-17T17:49:03.507Z,93963.06
2023-01-17T17:54:01.589Z,93980.47
2023-01-17T17:58:56.949Z,93992.59
2023-01-17T18:03:50.247Z,93992.19
2023-01-17T18:08:43.552Z,93986.59
2023-01-17T18:13:37.082Z,93986.72
2023-01-17T18:18:32.480Z,94000.00
2023-01-17T18:30:44.423Z,94006.03
2023-01-17T18:35:39.291Z,94004.44
2023-01-17T18:40:35.335Z,93995.41
2023-01-17T18:45:28.686Z,93998.28
2023-01-17T18:50:22.070Z,93999.25
2023-01-17T18:55:24.266Z,93997.19
2023-01-17T19:00:19.603Z,93992.84
2023-01-17T19:05:14.904Z,93981.81
2023-01-17T19:10:10.015Z,93993.53
2023-01-17T19:15:05.406Z,93999.13
2023-01-17T19:19:58.836Z,93986.19
2023-01-17T19:24:53.126Z,94004.84
2023-01-17T19:29:46.458Z,94014.78
2023-01-17T19:34:41.187Z,94021.19
2023-01-17T19:39:35.449Z,94022.97
2023-01-17T19:44:28.860Z,94035.06
2023-01-17T19:49:24.723Z,94044.03
2023-01-17T19:54:19.630Z,94031.25
2023-01-17T19:59:13.908Z,94032.88
2023-01-17T20:16:11.197Z,94018.34
2023-01-17T20:21:08.635Z,94022.13
2023-01-17T20:26:04.840Z,94021.34
2023-01-17T20:31:05.260Z,94033.97
2023-01-17T20:36:10.747Z,94020.09
2023-01-17T20:41:06.800Z,94028.91
2023-01-17T23:09:38.458Z,94087.69
2023-01-17T23:14:54.547Z,94073.88
2023-01-17T23:19:51.096Z,94076.03
2023-01-17T23:24:49.561Z,94082.38
2023-01-17T23:29:43.233Z,94085.59
2023-01-17T23:54:35.288Z,94078.28
2023-01-17T23:59:28.787Z,94078.72
